createdAt,value
2018-03-27T00:01:39.751Z,44.07
2018-03-27T00:03:42.430Z,45.40
2018-03-27T00:05:45.857Z,44.43
2018-03-27T00:07:48.495Z,45.93
2018-03-27T00:09:51.901Z,45.73
2018-03-27T00:11:54.512Z,44.87
2018-03-27T00:13:57.139Z,45.33
2018-03-27T00:16:00.553Z,45.30
2018-03-27T00:18:03.224Z,45.40
2018-03-27T00:20:05.845Z,46.00
2018-03-27T00:22:08.486Z,43.33
2018-03-27T00:24:11.094Z,44.73
2018-03-27T00:26:13.791Z,47.17
2018-03-27T00:28:28.079Z,41.67
2018-03-27T00:30:42.619Z,44.63
2018-03-27T00:32:57.839Z,44.43
2018-03-27T00:35:13.108Z,43.23
2018-03-27T00:37:27.514Z,43.67
2018-03-27T00:39:42.662Z,43.63
2018-03-27T00:44:29.971Z,43.63
2018-03-27T00:46:32.599Z,43.40
2018-03-27T00:48:35.963Z,43.57
2018-03-27T00:50:38.582Z,44.40
2018-03-27T00:52:41.946Z,44.43
2018-03-27T00:54:44.533Z,45.40
2018-03-27T00:56:47.907Z,43.77
2018-03-27T00:58:50.532Z,45.80
2018-03-27T01:00:53.119Z,45.27
2018-03-27T01:02:55.735Z,45.17
2018-03-27T01:05:03.956Z,46.40
2018-03-27T01:07:07.422Z,45.77
2018-03-27T01:09:10.014Z,46.70
2018-03-27T01:11:13.395Z,46.40
2018-03-27T01:13:15.999Z,46.90
2018-03-27T01:15:18.594Z,48.00
2018-03-27T01:17:21.207Z,48.93
2018-03-27T01:19:23.838Z,49.30
2018-03-27T01:21:26.476Z,48.77
2018-03-27T01:23:29.070Z,49.07
2018-03-27T01:25:32.445Z,47.37
2018-03-27T01:27:35.803Z,48.63
2018-03-27T01:29:38.949Z,51.40
2018-03-27T01:31:41.628Z,49.67
2018-03-27T01:33:44.230Z,48.10
2018-03-27T01:35:46.834Z,47.03
2018-03-27T01:37:49.450Z,50.43
2018-03-27T01:39:52.058Z,47.13
2018-03-27T01:41:54.823Z,49.93
2018-03-27T01:43:57.451Z,47.83
2018-03-27T01:46:00.806Z,49.57
2018-03-27T01:48:03.418Z,48.10
2018-03-27T01:50:06.810Z,49.73
2018-03-27T01:52:10.175Z,49.10
2018-03-27T01:54:12.799Z,48.07
2018-03-27T01:56:15.443Z,50.87
2018-03-27T01:58:18.827Z,49.83
2018-03-27T02:00:21.447Z,50.83
2018-03-27T02:02:24.034Z,49.43
2018-03-27T02:04:26.634Z,51.90
2018-03-27T02:06:29.258Z,50.47
2018-03-27T02:08:31.885Z,49.73
2018-03-27T02:10:33.981Z,50.73
2018-03-27T02:12:42.991Z,50.27
2018-03-27T02:14:51.098Z,51.50
2018-03-27T02:16:59.446Z,51.87
2018-03-27T02:19:07.725Z,54.10
2018-03-27T02:21:16.630Z,51.80
2018-03-27T02:23:20.054Z,51.70
2018-03-27T02:25:23.433Z,52.63
2018-03-27T02:27:26.819Z,51.63
2018-03-27T02:29:29.421Z,52.03
2018-03-27T02:31:32.012Z,51.20
2018-03-27T02:33:34.630Z,49.67
2018-03-27T02:35:37.267Z,50.83
2018-03-27T02:37:39.877Z,51.80
2018-03-27T02:39:42.479Z,52.13
2018-03-27T02:41:45.170Z,51.03
2018-03-27T02:43:47.774Z,49.00
2018-03-27T02:45:50.442Z,48.50
2018-03-27T02:47:53.039Z,49.67
2018-03-27T02:49:55.666Z,47.73
2018-03-27T02:51:58.273Z,44.77
2018-03-27T02:54:00.899Z,44.67
2018-03-27T02:56:03.526Z,45.80
2018-03-27T02:58:06.278Z,44.27
2018-03-27T03:00:08.870Z,44.30
2018-03-27T03:02:11.482Z,43.57
2018-03-27T03:04:14.127Z,42.17
2018-03-27T03:06:16.734Z,42.57
2018-03-27T03:08:19.346Z,44.20
2018-03-27T03:10:22.058Z,41.93
2018-03-27T03:12:24.669Z,42.57
2018-03-27T03:14:28.031Z,41.83
2018-03-27T03:16:30.636Z,43.10
2018-03-27T03:18:33.259Z,41.90
2018-03-27T03:20:38.739Z,40.97
2018-03-27T03:22:41.324Z,41.90
2018-03-27T03:24:44.749Z,42.80
2018-03-27T03:26:47.333Z,44.73
2018-03-27T03:28:49.946Z,42.90
2018-03-27T03:30:52.567Z,41.33
2018-03-27T03:32:55.175Z,42.50
2018-03-27T03:34:57.791Z,42.07
2018-03-27T03:37:01.141Z,42.70
2018-03-27T03:39:03.731Z,43.73
2018-03-27T03:41:06.391Z,41.53
2018-03-27T03:43:09.009Z,41.20
2018-03-27T03:45:13.169Z,40.93
2018-03-27T03:47:15.802Z,43.53
2018-03-27T03:49:19.158Z,46.30
2018-03-27T03:51:21.773Z,43.30
2018-03-27T03:53:25.131Z,44.40
2018-03-27T03:55:27.717Z,43.27
2018-03-27T03:57:30.367Z,43.93
2018-03-27T03:59:33.770Z,44.10
2018-03-27T04:01:36.762Z,44.47
2018-03-27T04:03:39.348Z,44.40
2018-03-27T04:05:41.966Z,46.70
2018-03-27T04:07:44.605Z,46.47
2018-03-27T04:09:47.956Z,44.30
2018-03-27T04:11:50.574Z,45.30
2018-03-27T04:13:53.202Z,43.17
2018-03-27T04:15:55.785Z,44.07
2018-03-27T04:17:58.390Z,43.83
2018-03-27T04:20:01.009Z,45.53
2018-03-27T04:22:03.605Z,44.67
2018-03-27T04:24:06.993Z,43.17
2018-03-27T04:26:09.657Z,41.43
2018-03-27T04:28:13.002Z,43.20
2018-03-27T04:30:18.788Z,42.47
2018-03-27T04:32:21.382Z,42.53
2018-03-27T04:34:24.001Z,42.50
2018-03-27T04:36:27.369Z,40.80
2018-03-27T04:38:29.997Z,42.10
2018-03-27T04:40:32.602Z,43.27
2018-03-27T04:42:35.201Z,42.70
2018-03-27T04:44:37.827Z,42.23
2018-03-27T04:46:40.438Z,41.70
2018-03-27T04:48:43.055Z,42.33
2018-03-27T04:50:45.650Z,41.67
2018-03-27T04:52:48.246Z,42.27
2018-03-27T04:54:52.138Z,43.13
2018-03-27T04:56:54.726Z,42.40
2018-03-27T04:58:57.321Z,43.23
2018-03-27T05:00:59.929Z,44.63
2018-03-27T05:03:02.533Z,45.40
2018-03-27T05:05:05.165Z,44.07
2018-03-27T05:07:08.586Z,48.30
2018-03-27T05:09:11.186Z,46.20
2018-03-27T05:11:13.829Z,48.63
2018-03-27T05:13:16.429Z,47.93
2018-03-27T05:15:19.125Z,47.07
2018-03-27T05:17:21.776Z,45.20
2018-03-27T05:19:24.420Z,46.03
2018-03-27T05:21:27.877Z,45.27
2018-03-27T05:23:30.671Z,45.23
2018-03-27T05:25:33.270Z,45.70
2018-03-27T05:27:39.444Z,46.13
2018-03-27T05:29:42.796Z,44.30
2018-03-27T05:31:45.401Z,45.47
2018-03-27T05:33:48.025Z,48.97
2018-03-27T05:35:50.709Z,47.67
2018-03-27T05:37:53.333Z,46.73
2018-03-27T05:39:55.949Z,45.53
2018-03-27T05:41:58.651Z,46.40
2018-03-27T05:44:02.039Z,46.70
2018-03-27T05:46:04.757Z,48.03
2018-03-27T05:48:07.446Z,45.73
2018-03-27T05:50:10.155Z,46.83
2018-03-27T05:52:12.782Z,45.63
2018-03-27T05:54:15.398Z,44.93
2018-03-27T05:56:17.995Z,47.27
2018-03-27T05:58:20.711Z,45.87
2018-03-27T06:00:23.306Z,48.03
2018-03-27T06:02:25.953Z,48.27
2018-03-27T06:04:28.532Z,45.33
2018-03-27T06:06:31.238Z,47.57
2018-03-27T06:08:33.861Z,45.60
2018-03-27T06:10:37.218Z,46.83
2018-03-27T06:12:39.865Z,48.30
2018-03-27T06:14:42.527Z,46.73
2018-03-27T06:16:45.121Z,46.77
2018-03-27T06:18:47.737Z,46.20
2018-03-27T06:20:50.600Z,46.37
2018-03-27T06:22:53.197Z,47.07
2018-03-27T06:24:55.841Z,46.80
2018-03-27T06:26:58.509Z,49.43
2018-03-27T06:29:01.118Z,47.37
2018-03-27T06:31:03.742Z,46.70
2018-03-27T06:33:06.336Z,48.27
2018-03-27T06:35:08.938Z,45.80
2018-03-27T06:37:12.313Z,47.47
2018-03-27T06:39:15.189Z,45.87
2018-03-27T06:41:17.833Z,46.20
2018-03-27T06:43:21.299Z,45.03
2018-03-27T06:45:24.804Z,45.63
2018-03-27T06:47:27.418Z,46.17
2018-03-27T06:49:30.087Z,47.67
2018-03-27T06:51:32.706Z,46.43
2018-03-27T06:53:36.107Z,45.50
2018-03-27T06:55:39.493Z,45.70
2018-03-27T06:57:42.210Z,48.83
2018-03-27T06:59:45.533Z,47.47
2018-03-27T07:01:48.235Z,48.57
2018-03-27T07:03:50.872Z,45.33
2018-03-27T07:05:53.854Z,46.10
2018-03-27T07:07:56.456Z,45.53
2018-03-27T07:09:59.147Z,44.87
2018-03-27T07:12:02.532Z,47.00
2018-03-27T07:14:05.214Z,46.63
2018-03-27T07:16:08.635Z,46.27
2018-03-27T07:18:12.042Z,49.17
2018-03-27T07:20:15.756Z,44.63
2018-03-27T07:22:18.410Z,45.83
2018-03-27T07:24:21.028Z,48.23
2018-03-27T07:26:23.686Z,46.73
2018-03-27T07:28:26.274Z,46.63
2018-03-27T07:30:28.923Z,46.33
2018-03-27T07:32:31.934Z,44.47
2018-03-27T07:34:34.588Z,47.00
2018-03-27T07:36:37.207Z,40.70
2018-03-27T07:38:39.814Z,40.40
2018-03-27T07:40:42.417Z,41.97
2018-03-27T07:42:45.081Z,38.93
2018-03-27T07:44:47.697Z,40.57
2018-03-27T07:46:50.315Z,38.77
2018-03-27T07:48:52.913Z,37.57
2018-03-27T07:50:55.674Z,36.33
2018-03-27T07:52:58.279Z,33.60
2018-03-27T07:55:00.990Z,36.70
2018-03-27T07:57:05.597Z,36.23
2018-03-27T07:59:08.185Z,38.57
2018-03-27T08:01:10.780Z,34.83
2018-03-27T08:03:14.183Z,35.70
2018-03-27T08:05:16.823Z,37.07
2018-03-27T08:07:19.508Z,36.27
2018-03-27T08:09:22.894Z,34.90
2018-03-27T08:11:26.269Z,34.07
2018-03-27T08:13:28.884Z,35.07
2018-03-27T08:15:31.502Z,35.20
2018-03-27T08:17:34.186Z,34.80
2018-03-27T08:19:37.086Z,36.77
2018-03-27T08:21:39.683Z,35.33
2018-03-27T08:23:43.057Z,36.80
2018-03-27T08:25:46.409Z,35.63
2018-03-27T08:27:49.051Z,35.27
2018-03-27T08:29:51.654Z,34.60
2018-03-27T08:31:54.298Z,35.47
2018-03-27T08:33:57.689Z,34.77
2018-03-27T08:36:00.285Z,34.30
2018-03-27T08:38:02.892Z,34.50
2018-03-27T08:40:05.532Z,35.00
2018-03-27T08:42:08.118Z,35.10
2018-03-27T08:44:10.749Z,35.40
2018-03-27T08:46:14.138Z,36.00
2018-03-27T08:48:17.499Z,33.40
2018-03-27T08:50:20.142Z,33.33
2018-03-27T08:52:22.738Z,34.00
2018-03-27T08:54:25.339Z,33.67
2018-03-27T08:56:27.931Z,35.97
2018-03-27T08:58:31.306Z,33.33
2018-03-27T09:00:34.712Z,32.37
2018-03-27T09:02:38.078Z,32.40
2018-03-27T09:04:40.749Z,32.50
2018-03-27T09:06:43.344Z,31.07
2018-03-27T09:08:45.968Z,31.20
2018-03-27T09:10:48.593Z,31.93
2018-03-27T09:12:51.242Z,31.43
2018-03-27T09:14:53.826Z,30.60
2018-03-27T09:16:56.433Z,32.00
2018-03-27T09:19:01.518Z,28.77
2018-03-27T09:21:04.962Z,30.03
2018-03-27T09:23:08.355Z,30.47
2018-03-27T09:25:11.693Z,28.07
2018-03-27T09:27:14.325Z,27.93
2018-03-27T09:29:16.969Z,28.73
2018-03-27T09:31:19.557Z,28.27
2018-03-27T09:33:22.169Z,27.57
2018-03-27T09:35:24.780Z,26.63
2018-03-27T09:37:27.395Z,26.73
2018-03-27T09:39:30.805Z,26.60
2018-03-27T09:41:33.514Z,27.40
2018-03-27T09:43:36.198Z,25.97
2018-03-27T09:45:38.797Z,25.40
2018-03-27T09:47:41.410Z,25.57
2018-03-27T09:49:44.051Z,25.40
2018-03-27T09:51:46.644Z,23.37
2018-03-27T09:53:50.091Z,24.13
2018-03-27T09:55:52.689Z,20.70
2018-03-27T09:57:55.275Z,18.07
2018-03-27T09:59:58.688Z,15.97
2018-03-27T10:02:01.284Z,14.00
2018-03-27T10:04:03.893Z,14.97
2018-03-27T10:06:06.474Z,14.70
2018-03-27T10:08:09.146Z,15.37
2018-03-27T10:10:11.753Z,15.70
2018-03-27T10:12:15.138Z,15.40
2018-03-27T10:14:18.516Z,15.50
2018-03-27T10:16:21.896Z,15.17
2018-03-27T10:18:24.526Z,15.07
2018-03-27T10:20:27.144Z,15.07
2018-03-27T10:22:29.742Z,14.07
2018-03-27T10:24:33.253Z,15.07
2018-03-27T10:26:35.869Z,13.83
2018-03-27T10:28:38.466Z,12.27
2018-03-27T10:30:41.081Z,10.40
2018-03-27T10:32:43.726Z,10.77
2018-03-27T10:34:47.615Z,11.10
2018-03-27T10:36:51.072Z,11.27
2018-03-27T10:38:53.687Z,11.00
2018-03-27T10:40:56.321Z,10.60
2018-03-27T10:42:58.916Z,10.53
2018-03-27T10:45:01.518Z,11.90
2018-03-27T10:47:04.914Z,11.13
2018-03-27T10:49:07.502Z,11.57
2018-03-27T10:51:10.865Z,11.43
2018-03-27T10:53:13.487Z,10.50
2018-03-27T10:55:16.115Z,11.90
2018-03-27T10:57:18.752Z,11.90
2018-03-27T10:59:21.530Z,12.10
2018-03-27T11:01:24.155Z,11.33
2018-03-27T11:03:26.772Z,12.33
2018-03-27T11:05:29.377Z,12.83
2018-03-27T11:07:31.999Z,13.03
2018-03-27T11:09:35.373Z,13.13
2018-03-27T11:11:37.962Z,12.37
2018-03-27T11:13:41.359Z,12.90
2018-03-27T11:15:44.732Z,12.10
2018-03-27T11:17:47.315Z,12.90
2018-03-27T11:19:50.691Z,13.20
2018-03-27T11:21:53.288Z,14.67
2018-03-27T11:23:55.910Z,14.20
2018-03-27T11:25:58.517Z,13.47
2018-03-27T11:28:01.110Z,13.53
2018-03-27T11:30:04.471Z,14.70
2018-03-27T11:32:07.061Z,15.60
2018-03-27T11:34:09.746Z,14.80
2018-03-27T11:36:13.141Z,15.07
2018-03-27T11:38:16.496Z,15.73
2018-03-27T11:40:19.110Z,14.50
2018-03-27T11:42:22.470Z,14.60
2018-03-27T11:44:25.067Z,13.80
2018-03-27T11:46:27.782Z,14.37
2018-03-27T11:48:30.390Z,15.07
2018-03-27T11:50:32.978Z,14.67
2018-03-27T11:52:35.583Z,18.33
2018-03-27T11:54:38.995Z,18.23
2018-03-27T11:56:42.358Z,18.60
2018-03-27T11:58:45.812Z,18.13
2018-03-27T12:00:49.230Z,19.57
2018-03-27T12:02:51.877Z,18.23
2018-03-27T12:04:54.480Z,19.43
2018-03-27T12:06:58.610Z,19.37
2018-03-27T12:09:02.079Z,18.87
2018-03-27T12:11:04.670Z,20.57
2018-03-27T12:13:08.065Z,19.97
2018-03-27T12:15:11.425Z,20.20
2018-03-27T12:17:14.233Z,20.53
2018-03-27T12:19:17.589Z,21.53
2018-03-27T12:21:20.935Z,20.53
2018-03-27T12:23:23.674Z,19.87
2018-03-27T12:25:26.285Z,19.47
2018-03-27T12:27:29.662Z,19.17
2018-03-27T12:29:32.284Z,20.00
2018-03-27T12:31:34.978Z,19.40
2018-03-27T12:33:37.612Z,19.77
2018-03-27T12:35:40.502Z,19.77
2018-03-27T12:37:43.097Z,19.77
2018-03-27T12:39:45.767Z,18.43
2018-03-27T12:41:48.356Z,17.30
2018-03-27T12:43:50.973Z,17.33
2018-03-27T12:45:54.526Z,16.47
2018-03-27T12:47:57.947Z,18.23
2018-03-27T12:50:00.585Z,17.07
2018-03-27T12:52:03.177Z,17.13
2018-03-27T12:54:05.771Z,16.77
2018-03-27T12:56:08.384Z,17.07
2018-03-27T12:58:10.970Z,16.80
2018-03-27T13:00:13.635Z,18.73
2018-03-27T13:02:16.237Z,17.27
2018-03-27T13:04:18.833Z,18.33
2018-03-27T13:06:21.454Z,17.47
2018-03-27T13:08:24.039Z,17.43
2018-03-27T13:10:26.661Z,18.03
2018-03-27T13:12:29.256Z,16.43
2018-03-27T13:14:32.606Z,18.20
2018-03-27T13:16:36.207Z,18.33
2018-03-27T13:18:38.818Z,16.70
2018-03-27T13:20:42.210Z,16.77
2018-03-27T13:22:46.005Z,16.37
2018-03-27T13:24:48.558Z,14.57
2018-03-27T13:26:52.678Z,15.47
2018-03-27T13:28:55.282Z,15.10
2018-03-27T13:30:58.666Z,16.43
2018-03-27T13:33:02.056Z,15.27
2018-03-27T13:35:05.409Z,15.97
2018-03-27T13:37:08.798Z,15.83
2018-03-27T13:39:11.434Z,16.20
2018-03-27T13:41:14.076Z,15.97
2018-03-27T13:43:16.788Z,17.30
2018-03-27T13:45:19.411Z,16.83
2018-03-27T13:47:22.032Z,17.10
2018-03-27T13:49:24.650Z,17.60
2018-03-27T13:51:27.527Z,16.87
2018-03-27T13:53:30.156Z,16.90
2018-03-27T13:55:33.521Z,15.43
2018-03-27T13:57:36.134Z,15.50
2018-03-27T13:59:38.749Z,14.83
2018-03-27T14:01:41.354Z,15.17
2018-03-27T14:03:44.747Z,14.93
2018-03-27T14:05:47.362Z,14.50
2018-03-27T14:07:50.191Z,14.67
2018-03-27T14:09:53.581Z,15.47
2018-03-27T14:11:56.190Z,14.47
2018-03-27T14:13:59.614Z,15.43
2018-03-27T14:16:02.221Z,15.53
2018-03-27T14:18:04.842Z,14.07
2018-03-27T14:20:07.455Z,14.57
2018-03-27T14:22:10.103Z,15.37
2018-03-27T14:24:12.745Z,14.87
2018-03-27T14:26:16.104Z,16.47
2018-03-27T14:28:18.708Z,16.73
2018-03-27T14:30:22.090Z,17.73
2018-03-27T14:32:24.916Z,17.27
2018-03-27T14:34:27.629Z,18.40
2018-03-27T14:36:30.230Z,17.17
2018-03-27T14:38:33.585Z,17.20
2018-03-27T14:40:36.192Z,18.70
2018-03-27T14:42:39.561Z,16.97
2018-03-27T14:44:42.220Z,17.47
2018-03-27T14:46:45.208Z,17.67
2018-03-27T14:48:47.836Z,19.10
2018-03-27T14:50:51.218Z,16.13
2018-03-27T14:52:54.601Z,17.37
2018-03-27T14:54:57.310Z,17.30
2018-03-27T14:56:59.946Z,17.07
2018-03-27T14:59:04.204Z,18.03
2018-03-27T15:01:06.847Z,17.87
2018-03-27T15:03:10.227Z,17.13
2018-03-27T15:05:12.858Z,16.47
2018-03-27T15:07:15.475Z,17.53
2018-03-27T15:09:18.095Z,17.50
2018-03-27T15:11:24.440Z,17.03
2018-03-27T15:13:27.093Z,17.03
2018-03-27T15:15:30.461Z,16.90
2018-03-27T15:17:33.074Z,18.03
2018-03-27T15:19:36.430Z,16.97
2018-03-27T15:21:39.014Z,17.63
2018-03-27T15:23:41.626Z,17.67
2018-03-27T15:25:44.358Z,17.97
2018-03-27T15:27:46.977Z,17.20
2018-03-27T15:29:49.636Z,17.77
2018-03-27T15:31:53.057Z,18.80
2018-03-27T15:33:55.648Z,17.50
2018-03-27T15:35:58.282Z,19.60
2018-03-27T15:38:01.657Z,19.33
2018-03-27T15:40:04.262Z,17.50
2018-03-27T15:42:06.860Z,18.57
2018-03-27T15:44:09.489Z,17.73
2018-03-27T15:46:14.498Z,19.57
2018-03-27T15:48:17.250Z,17.37
2018-03-27T15:50:19.873Z,16.90
2018-03-27T15:52:22.473Z,18.13
2018-03-27T15:54:25.074Z,19.13
2018-03-27T15:56:27.726Z,18.00
2018-03-27T15:58:30.833Z,18.03
2018-03-27T16:00:33.447Z,16.40
2018-03-27T16:02:36.050Z,18.23
2018-03-27T16:04:38.686Z,18.57
2018-03-27T16:06:41.289Z,16.33
2018-03-27T16:08:44.662Z,17.37
2018-03-27T16:10:47.763Z,16.57
2018-03-27T16:12:51.184Z,18.87
2018-03-27T16:14:53.817Z,15.57
2018-03-27T16:16:56.427Z,16.90
2018-03-27T16:18:59.045Z,15.97
2018-03-27T16:21:04.319Z,16.40
2018-03-27T16:23:07.708Z,16.43
2018-03-27T16:25:11.207Z,17.37
2018-03-27T16:27:14.648Z,15.80
2018-03-27T16:29:17.243Z,16.60
2018-03-27T16:31:20.617Z,16.63
2018-03-27T16:33:23.223Z,16.47
2018-03-27T16:35:25.830Z,16.90
2018-03-27T16:37:28.432Z,18.07
2018-03-27T16:39:31.056Z,17.63
2018-03-27T16:41:33.646Z,17.80
2018-03-27T16:43:37.109Z,19.53
2018-03-27T16:45:39.689Z,18.57
2018-03-27T16:47:42.288Z,17.43
2018-03-27T16:49:45.717Z,18.93
2018-03-27T16:51:49.082Z,17.80
2018-03-27T16:53:51.681Z,18.03
2018-03-27T16:55:54.339Z,17.90
2018-03-27T16:57:56.950Z,19.10
2018-03-27T17:00:00.382Z,18.60
2018-03-27T17:02:03.003Z,20.00
2018-03-27T17:04:05.598Z,18.03
2018-03-27T17:06:08.214Z,18.63
2018-03-27T17:08:11.885Z,19.07
2018-03-27T17:10:14.558Z,19.33
2018-03-27T17:12:17.170Z,18.33
2018-03-27T17:14:19.787Z,18.60
2018-03-27T17:16:22.429Z,20.20
2018-03-27T17:18:25.055Z,18.40
2018-03-27T17:20:27.681Z,17.67
2018-03-27T17:22:30.333Z,18.17
2018-03-27T17:24:33.722Z,18.53
2018-03-27T17:26:37.123Z,18.93
2018-03-27T17:28:39.739Z,20.10
2018-03-27T17:30:42.361Z,20.77
2018-03-27T17:32:45.753Z,21.13
2018-03-27T17:34:48.366Z,22.00
2018-03-27T17:36:50.984Z,22.77
2018-03-27T17:38:53.595Z,21.67
2018-03-27T17:40:56.995Z,21.17
2018-03-27T17:42:59.622Z,22.97
2018-03-27T17:45:02.242Z,22.83
2018-03-27T17:47:04.956Z,23.40
2018-03-27T17:49:07.550Z,25.90
2018-03-27T17:51:10.469Z,25.97
2018-03-27T17:53:13.118Z,26.87
2018-03-27T17:55:15.738Z,27.73
2018-03-27T17:57:19.882Z,31.30
2018-03-27T17:59:23.262Z,37.33
2018-03-27T18:01:25.987Z,30.33
2018-03-27T18:03:28.653Z,33.63
2018-03-27T18:05:31.247Z,35.43
2018-03-27T18:07:34.684Z,32.57
2018-03-27T18:09:37.349Z,31.87
2018-03-27T18:11:39.952Z,32.83
2018-03-27T18:13:42.840Z,33.40
2018-03-27T18:15:46.281Z,34.33
2018-03-27T18:17:48.880Z,33.73
2018-03-27T18:19:51.518Z,33.67
2018-03-27T18:21:54.894Z,34.17
2018-03-27T18:23:58.329Z,36.47
2018-03-27T18:26:00.933Z,33.53
2018-03-27T18:28:03.589Z,34.90
2018-03-27T18:30:06.201Z,32.03
2018-03-27T18:32:08.803Z,30.80
2018-03-27T18:34:11.486Z,29.40
2018-03-27T18:36:14.095Z,32.30
2018-03-27T18:38:16.716Z,29.07
2018-03-27T18:40:20.109Z,25.60
2018-03-27T18:42:23.498Z,26.90
2018-03-27T18:44:26.918Z,27.83
2018-03-27T18:46:30.311Z,28.90
2018-03-27T18:48:32.920Z,32.73
2018-03-27T18:50:35.542Z,30.70
2018-03-27T18:52:38.914Z,32.17
2018-03-27T18:54:41.547Z,32.10
2018-03-27T18:56:44.209Z,29.77
2018-03-27T18:58:47.460Z,30.00
2018-03-27T19:00:50.129Z,29.57
2018-03-27T19:02:53.577Z,26.77
2018-03-27T19:04:56.210Z,24.30
2018-03-27T19:06:58.883Z,25.57
2018-03-27T19:09:01.549Z,25.37
2018-03-27T19:11:04.217Z,26.03
2018-03-27T19:13:06.862Z,27.60
2018-03-27T19:15:09.507Z,28.27
2018-03-27T19:17:12.920Z,29.37
2018-03-27T19:19:15.525Z,31.00
2018-03-27T19:21:18.125Z,33.33
2018-03-27T19:23:21.591Z,34.57
2018-03-27T19:25:24.195Z,36.80
2018-03-27T19:27:26.891Z,41.90
2018-03-27T19:29:30.410Z,43.97
2018-03-27T19:31:33.016Z,43.93
2018-03-27T19:33:36.437Z,41.23
2018-03-27T19:35:39.070Z,46.63
2018-03-27T19:37:41.781Z,46.20
2018-03-27T19:39:44.398Z,51.57
2018-03-27T19:41:47.025Z,46.63
2018-03-27T19:43:49.640Z,50.83
2018-03-27T19:45:52.305Z,57.73
2018-03-27T19:47:55.598Z,51.83
2018-03-27T19:49:59.105Z,46.83
2018-03-27T19:52:01.727Z,28.40
2018-03-27T19:54:04.391Z,25.00
2018-03-27T19:56:07.030Z,28.83
2018-03-27T19:58:09.655Z,25.10
2018-03-27T20:00:12.319Z,23.17
2018-03-27T20:02:14.942Z,23.27
2018-03-27T20:06:26.624Z,20.67
2018-03-27T20:08:29.285Z,22.80
2018-03-27T20:10:31.915Z,19.90
2018-03-27T20:12:34.535Z,19.03
2018-03-27T20:14:37.169Z,19.47
2018-03-27T20:16:39.797Z,18.90
2018-03-27T20:18:42.479Z,17.73
2018-03-27T20:20:45.855Z,17.43
2018-03-27T20:22:48.470Z,18.20
2018-03-27T20:24:51.101Z,18.03
2018-03-27T20:26:53.740Z,16.53
2018-03-27T20:28:56.376Z,17.73
2018-03-27T20:30:59.811Z,18.57
2018-03-27T20:33:02.450Z,16.57
2018-03-27T20:35:05.176Z,18.90
2018-03-27T20:37:07.842Z,18.13
2018-03-27T20:39:10.480Z,17.77
2018-03-27T20:41:14.490Z,17.20
2018-03-27T20:43:17.149Z,18.20
2018-03-27T20:45:19.864Z,20.13
2018-03-27T20:47:22.485Z,19.10
2018-03-27T20:49:25.860Z,17.80
2018-03-27T20:51:28.497Z,19.73
2018-03-27T20:53:31.121Z,17.83
2018-03-27T20:55:33.931Z,19.83
2018-03-27T20:57:37.333Z,19.63
2018-03-27T20:59:39.925Z,21.80
2018-03-27T21:01:42.525Z,19.57
2018-03-27T21:03:45.908Z,19.47
2018-03-27T21:05:49.286Z,18.73
2018-03-27T21:07:51.935Z,18.30
2018-03-27T21:09:55.371Z,18.50
2018-03-27T21:11:57.978Z,19.30
2018-03-27T21:14:00.630Z,17.73
2018-03-27T21:16:03.221Z,19.87
2018-03-27T21:18:05.845Z,19.00
2018-03-27T21:20:08.439Z,17.60
2018-03-27T21:22:11.082Z,19.87
2018-03-27T21:24:14.478Z,20.23
2018-03-27T21:26:17.091Z,20.20
2018-03-27T21:28:19.763Z,21.63
2018-03-27T21:30:22.455Z,18.83
2018-03-27T21:32:25.103Z,20.70
2018-03-27T21:34:27.715Z,22.30
2018-03-27T21:36:30.324Z,20.17
2018-03-27T21:38:33.696Z,21.20
2018-03-27T21:40:36.331Z,21.57
2018-03-27T21:42:38.933Z,21.43
2018-03-27T21:44:41.569Z,21.07
2018-03-27T21:46:44.309Z,22.67
2018-03-27T21:48:47.699Z,21.13
2018-03-27T21:50:51.134Z,20.57
2018-03-27T21:52:53.726Z,20.73
2018-03-27T21:54:56.382Z,20.67
2018-03-27T21:57:00.277Z,21.53
2018-03-27T21:59:02.845Z,22.33
2018-03-27T22:01:05.491Z,22.33
2018-03-27T22:03:08.087Z,22.57
2018-03-27T22:05:11.661Z,22.93
2018-03-27T22:07:14.314Z,23.00
2018-03-27T22:09:17.014Z,23.07
2018-03-27T22:11:19.598Z,22.33
2018-03-27T22:13:22.238Z,21.90
2018-03-27T22:15:25.294Z,22.53
2018-03-27T22:17:28.697Z,22.77
2018-03-27T22:19:31.318Z,22.53
2018-03-27T22:21:34.724Z,20.93
2018-03-27T22:23:38.074Z,22.17
2018-03-27T22:25:40.694Z,21.90
2018-03-27T22:27:44.076Z,20.27
2018-03-27T22:29:47.438Z,22.90
2018-03-27T22:31:50.042Z,21.97
2018-03-27T22:33:53.481Z,21.53
2018-03-27T22:35:56.074Z,23.13
2018-03-27T22:37:58.716Z,21.83
2018-03-27T22:40:02.079Z,21.23
2018-03-27T22:42:05.607Z,21.30
2018-03-27T22:44:08.233Z,21.73
2018-03-27T22:46:10.898Z,21.83
2018-03-27T22:48:13.494Z,21.47
2018-03-27T22:50:16.860Z,21.37
2018-03-27T22:54:25.903Z,21.20
2018-03-27T22:56:28.505Z,21.97
2018-03-27T22:58:31.883Z,21.80
2018-03-27T23:00:34.485Z,22.30
2018-03-27T23:02:37.111Z,20.77
2018-03-27T23:04:39.730Z,22.57
2018-03-27T23:06:43.097Z,22.83
2018-03-27T23:08:46.491Z,21.03
2018-03-27T23:10:49.090Z,19.73
2018-03-27T23:12:51.826Z,20.57
2018-03-27T23:14:54.426Z,20.70
2018-03-27T23:16:57.776Z,21.20
2018-03-27T23:19:00.438Z,20.87
2018-03-27T23:21:03.030Z,19.73
2018-03-27T23:23:05.617Z,20.57
2018-03-27T23:25:08.245Z,19.23
2018-03-27T23:27:10.849Z,20.43
2018-03-27T23:29:13.468Z,20.67
2018-03-27T23:31:17.154Z,19.60
2018-03-27T23:33:19.805Z,20.60
2018-03-27T23:35:22.414Z,19.33
2018-03-27T23:37:25.788Z,20.67
2018-03-27T23:39:28.392Z,19.63
2018-03-27T23:41:31.074Z,19.40
2018-03-27T23:43:33.772Z,20.17
2018-03-27T23:45:36.404Z,20.07
2018-03-27T23:47:43.631Z,20.27
2018-03-27T23:49:46.689Z,19.27
2018-03-27T23:51:51.157Z,20.00
2018-03-27T23:53:54.020Z,19.03
2018-03-27T23:55:56.796Z,18.63
2018-03-27T23:58:02.884Z,18.57
